sensor_id;sensor_type;location;lat;lon;timestamp;temperature;humidity
20370;DHT22;10344;47.592;9.600;2023-04-25T00:00:28;9.30;99.90
20370;DHT22;10344;47.592;9.600;2023-04-25T00:02:54;9.30;99.90
20370;DHT22;10344;47.592;9.600;2023-04-25T00:05:22;9.20;99.90
20370;DHT22;10344;47.592;9.600;2023-04-25T00:07:49;9.30;99.90
20370;DHT22;10344;47.592;9.600;2023-04-25T00:10:15;9.30;99.90
20370;DHT22;10344;47.592;9.600;2023-04-25T00:12:41;9.30;99.90
20370;DHT22;10344;47.592;9.600;2023-04-25T00:15:07;9.20;99.90
20370;DHT22;10344;47.592;9.600;2023-04-25T00:17:33;9.20;99.90
20370;DHT22;10344;47.592;9.600;2023-04-25T00:20:00;9.20;99.90
20370;DHT22;10344;47.592;9.600;2023-04-25T00:22:26;9.20;99.90
20370;DHT22;10344;47.592;9.600;2023-04-25T00:24:52;9.20;99.90
20370;DHT22;10344;47.592;9.600;2023-04-25T00:27:18;9.20;99.90
20370;DHT22;10344;47.592;9.600;2023-04-25T00:29:44;9.20;99.90
20370;DHT22;10344;47.592;9.600;2023-04-25T00:32:10;9.20;99.90
20370;DHT22;10344;47.592;9.600;2023-04-25T00:34:36;9.30;99.90
20370;DHT22;10344;47.592;9.600;2023-04-25T00:37:02;9.30;99.90
20370;DHT22;10344;47.592;9.600;2023-04-25T00:39:27;9.30;99.90
20370;DHT22;10344;47.592;9.600;2023-04-25T00:41:54;9.30;99.90
20370;DHT22;10344;47.592;9.600;2023-04-25T00:44:20;9.20;99.90
20370;DHT22;10344;47.592;9.600;2023-04-25T00:46:51;9.20;99.90
20370;DHT22;10344;47.592;9.600;2023-04-25T00:49:17;9.20;99.90
20370;DHT22;10344;47.592;9.600;2023-04-25T00:51:43;9.20;99.90
20370;DHT22;10344;47.592;9.600;2023-04-25T00:54:11;9.20;99.90
20370;DHT22;10344;47.592;9.600;2023-04-25T00:56:37;9.10;99.90
20370;DHT22;10344;47.592;9.600;2023-04-25T00:59:05;9.20;99.90
20370;DHT22;10344;47.592;9.600;2023-04-25T01:01:32;9.10;99.90
20370;DHT22;10344;47.592;9.600;2023-04-25T01:03:58;9.10;99.90
20370;DHT22;10344;47.592;9.600;2023-04-25T01:06:24;9.10;99.90
20370;DHT22;10344;47.592;9.600;2023-04-25T01:08:51;9.10;99.90
20370;DHT22;10344;47.592;9.600;2023-04-25T01:11:17;9.10;99.90
20370;DHT22;10344;47.592;9.600;2023-04-25T01:13:42;9.10;99.90
20370;DHT22;10344;47.592;9.600;2023-04-25T01:16:08;9.10;99.90
20370;DHT22;10344;47.592;9.600;2023-04-25T01:18:34;9.00;99.90
20370;DHT22;10344;47.592;9.600;2023-04-25T01:21:10;9.00;99.90
20370;DHT22;10344;47.592;9.600;2023-04-25T01:23:39;9.10;99.90
20370;DHT22;10344;47.592;9.600;2023-04-25T01:26:06;9.00;99.90
20370;DHT22;10344;47.592;9.600;2023-04-25T01:28:34;9.00;99.90
20370;DHT22;10344;47.592;9.600;2023-04-25T01:31:01;9.00;99.90
20370;DHT22;10344;47.592;9.600;2023-04-25T01:33:27;9.00;99.90
20370;DHT22;10344;47.592;9.600;2023-04-25T01:35:52;9.00;99.90
20370;DHT22;10344;47.592;9.600;2023-04-25T01:38:18;9.00;99.90
20370;DHT22;10344;47.592;9.600;2023-04-25T01:40:46;9.00;99.90
20370;DHT22;10344;47.592;9.600;2023-04-25T01:43:14;8.90;99.90
20370;DHT22;10344;47.592;9.600;2023-04-25T01:45:43;9.00;99.90
20370;DHT22;10344;47.592;9.600;2023-04-25T01:48:10;9.10;99.90
20370;DHT22;10344;47.592;9.600;2023-04-25T01:50:38;9.20;99.90
20370;DHT22;10344;47.592;9.600;2023-04-25T01:53:06;9.20;99.90
20370;DHT22;10344;47.592;9.600;2023-04-25T01:55:36;9.10;99.90
20370;DHT22;10344;47.592;9.600;2023-04-25T01:58:03;9.00;99.90
20370;DHT22;10344;47.592;9.600;2023-04-25T02:00:29;8.90;99.90
20370;DHT22;10344;47.592;9.600;2023-04-25T02:03:00;8.90;99.90
20370;DHT22;10344;47.592;9.600;2023-04-25T02:05:25;8.90;99.90
20370;DHT22;10344;47.592;9.600;2023-04-25T02:07:54;9.00;99.90
20370;DHT22;10344;47.592;9.600;2023-04-25T02:10:20;9.00;99.90
20370;DHT22;10344;47.592;9.600;2023-04-25T02:12:46;9.10;99.90
20370;DHT22;10344;47.592;9.600;2023-04-25T02:15:13;9.00;99.90
20370;DHT22;10344;47.592;9.600;2023-04-25T02:17:39;9.00;99.90
20370;DHT22;10344;47.592;9.600;2023-04-25T02:20:07;8.90;99.90
20370;DHT22;10344;47.592;9.600;2023-04-25T02:22:37;8.90;99.90
20370;DHT22;10344;47.592;9.600;2023-04-25T02:25:08;8.90;99.90
20370;DHT22;10344;47.592;9.600;2023-04-25T02:27:34;8.80;99.90
20370;DHT22;10344;47.592;9.600;2023-04-25T02:30:03;8.80;99.90
20370;DHT22;10344;47.592;9.600;2023-04-25T02:32:28;8.80;99.90
20370;DHT22;10344;47.592;9.600;2023-04-25T02:34:56;8.80;99.90
20370;DHT22;10344;47.592;9.600;2023-04-25T02:37:24;8.80;99.90
20370;DHT22;10344;47.592;9.600;2023-04-25T02:39:49;8.80;99.90
20370;DHT22;10344;47.592;9.600;2023-04-25T02:42:17;8.80;99.90
20370;DHT22;10344;47.592;9.600;2023-04-25T02:44:45;8.60;99.90
20370;DHT22;10344;47.592;9.600;2023-04-25T02:47:10;8.50;99.90
20370;DHT22;10344;47.592;9.600;2023-04-25T02:49:36;8.50;99.90
20370;DHT22;10344;47.592;9.600;2023-04-25T02:52:02;8.50;99.90
20370;DHT22;10344;47.592;9.600;2023-04-25T02:54:30;8.50;99.90
20370;DHT22;10344;47.592;9.600;2023-04-25T02:56:55;8.40;99.90
20370;DHT22;10344;47.592;9.600;2023-04-25T02:59:25;8.40;99.90
20370;DHT22;10344;47.592;9.600;2023-04-25T03:01:51;8.40;99.90
20370;DHT22;10344;47.592;9.600;2023-04-25T03:04:16;8.40;99.90
20370;DHT22;10344;47.592;9.600;2023-04-25T03:06:44;8.40;99.90
20370;DHT22;10344;47.592;9.600;2023-04-25T03:09:10;8.40;99.90
20370;DHT22;10344;47.592;9.600;2023-04-25T03:11:38;8.40;99.90
20370;DHT22;10344;47.592;9.600;2023-04-25T03:14:04;8.30;99.90
20370;DHT22;10344;47.592;9.600;2023-04-25T03:16:29;8.30;99.90
20370;DHT22;10344;47.592;9.600;2023-04-25T03:18:56;8.30;99.90
20370;DHT22;10344;47.592;9.600;2023-04-25T03:21:25;8.30;99.90
20370;DHT22;10344;47.592;9.600;2023-04-25T03:23:51;8.20;99.90
20370;DHT22;10344;47.592;9.600;2023-04-25T03:26:22;8.20;99.90
20370;DHT22;10344;47.592;9.600;2023-04-25T03:28:47;8.20;99.90
20370;DHT22;10344;47.592;9.600;2023-04-25T03:31:15;8.20;99.90
20370;DHT22;10344;47.592;9.600;2023-04-25T03:33:41;8.20;99.90
20370;DHT22;10344;47.592;9.600;2023-04-25T03:36:07;8.20;99.90
20370;DHT22;10344;47.592;9.600;2023-04-25T03:38:33;8.20;99.90
20370;DHT22;10344;47.592;9.600;2023-04-25T03:40:59;8.20;99.90
20370;DHT22;10344;47.592;9.600;2023-04-25T03:43:26;8.20;99.90
20370;DHT22;10344;47.592;9.600;2023-04-25T03:45:52;8.10;99.90
20370;DHT22;10344;47.592;9.600;2023-04-25T03:48:17;8.10;99.90
20370;DHT22;10344;47.592;9.600;2023-04-25T03:50:44;8.10;99.90
20370;DHT22;10344;47.592;9.600;2023-04-25T03:53:13;8.10;99.90
20370;DHT22;10344;47.592;9.600;2023-04-25T03:55:40;8.00;99.90
20370;DHT22;10344;47.592;9.600;2023-04-25T03:58:06;7.90;99.90
20370;DHT22;10344;47.592;9.600;2023-04-25T04:00:36;7.90;99.90
20370;DHT22;10344;47.592;9.600;2023-04-25T04:03:04;7.80;99.90
20370;DHT22;10344;47.592;9.600;2023-04-25T04:05:32;7.80;99.90
20370;DHT22;10344;47.592;9.600;2023-04-25T04:07:58;7.80;99.90
20370;DHT22;10344;47.592;9.600;2023-04-25T04:10:23;7.80;99.90
20370;DHT22;10344;47.592;9.600;2023-04-25T04:12:51;7.70;99.90
20370;DHT22;10344;47.592;9.600;2023-04-25T04:15:17;7.70;99.90
20370;DHT22;10344;47.592;9.600;2023-04-25T04:17:42;7.60;99.90
20370;DHT22;10344;47.592;9.600;2023-04-25T04:20:12;7.60;99.90
20370;DHT22;10344;47.592;9.600;2023-04-25T04:22:37;7.60;99.90
20370;DHT22;10344;47.592;9.600;2023-04-25T04:25:03;7.40;99.90
20370;DHT22;10344;47.592;9.600;2023-04-25T04:27:31;7.40;99.90
20370;DHT22;10344;47.592;9.600;2023-04-25T04:29:57;7.40;99.90
20370;DHT22;10344;47.592;9.600;2023-04-25T04:32:25;7.30;99.90
20370;DHT22;10344;47.592;9.600;2023-04-25T04:34:57;7.30;99.90
20370;DHT22;10344;47.592;9.600;2023-04-25T04:37:25;7.10;99.90
20370;DHT22;10344;47.592;9.600;2023-04-25T04:39:53;7.00;99.90
20370;DHT22;10344;47.592;9.600;2023-04-25T04:42:21;7.00;99.90
20370;DHT22;10344;47.592;9.600;2023-04-25T04:44:50;7.00;99.90
20370;DHT22;10344;47.592;9.600;2023-04-25T04:47:20;6.90;99.90
20370;DHT22;10344;47.592;9.600;2023-04-25T04:49:51;6.90;99.90
20370;DHT22;10344;47.592;9.600;2023-04-25T04:52:16;6.90;99.90
20370;DHT22;10344;47.592;9.600;2023-04-25T04:54:42;6.90;99.90
20370;DHT22;10344;47.592;9.600;2023-04-25T04:57:08;6.90;99.90
20370;DHT22;10344;47.592;9.600;2023-04-25T04:59:33;6.80;99.90
20370;DHT22;10344;47.592;9.600;2023-04-25T05:02:02;6.70;99.90
20370;DHT22;10344;47.592;9.600;2023-04-25T05:04:30;6.70;99.90
20370;DHT22;10344;47.592;9.600;2023-04-25T05:06:58;6.80;99.90
20370;DHT22;10344;47.592;9.600;2023-04-25T05:09:24;6.70;99.90
20370;DHT22;10344;47.592;9.600;2023-04-25T05:11:52;6.80;99.90
20370;DHT22;10344;47.592;9.600;2023-04-25T05:14:18;6.90;99.90
20370;DHT22;10344;47.592;9.600;2023-04-25T05:16:44;7.10;99.90
20370;DHT22;10344;47.592;9.600;2023-04-25T05:19:09;7.20;99.90
20370;DHT22;10344;47.592;9.600;2023-04-25T05:21:37;7.40;99.90
20370;DHT22;10344;47.592;9.600;2023-04-25T05:24:03;7.50;99.90
20370;DHT22;10344;47.592;9.600;2023-04-25T05:26:34;7.70;99.90
20370;DHT22;10344;47.592;9.600;2023-04-25T05:29:00;7.80;99.90
20370;DHT22;10344;47.592;9.600;2023-04-25T05:31:25;8.00;99.90
20370;DHT22;10344;47.592;9.600;2023-04-25T05:33:52;8.10;99.90
20370;DHT22;10344;47.592;9.600;2023-04-25T05:36:19;8.30;99.90
20370;DHT22;10344;47.592;9.600;2023-04-25T05:38:45;8.50;99.90
20370;DHT22;10344;47.592;9.600;2023-04-25T05:41:11;8.70;99.90
20370;DHT22;10344;47.592;9.600;2023-04-25T05:43:36;8.90;99.90
20370;DHT22;10344;47.592;9.600;2023-04-25T05:46:02;9.00;99.90
20370;DHT22;10344;47.592;9.600;2023-04-25T05:48:28;9.00;99.90
20370;DHT22;10344;47.592;9.600;2023-04-25T05:50:56;9.00;99.90
20370;DHT22;10344;47.592;9.600;2023-04-25T05:53:24;9.00;99.90
20370;DHT22;10344;47.592;9.600;2023-04-25T05:55:49;9.10;99.90
20370;DHT22;10344;47.592;9.600;2023-04-25T05:58:17;9.20;99.90
20370;DHT22;10344;47.592;9.600;2023-04-25T06:00:43;9.40;99.90
20370;DHT22;10344;47.592;9.600;2023-04-25T06:03:09;9.50;99.90
20370;DHT22;10344;47.592;9.600;2023-04-25T06:05:41;9.60;99.90
20370;DHT22;10344;47.592;9.600;2023-04-25T06:08:06;9.80;99.90
20370;DHT22;10344;47.592;9.600;2023-04-25T06:10:32;9.90;99.90
20370;DHT22;10344;47.592;9.600;2023-04-25T06:13:03;9.90;99.90
20370;DHT22;10344;47.592;9.600;2023-04-25T06:15:29;10.10;99.90
20370;DHT22;10344;47.592;9.600;2023-04-25T06:17:55;10.20;99.90
20370;DHT22;10344;47.592;9.600;2023-04-25T06:20:23;10.20;99.90
20370;DHT22;10344;47.592;9.600;2023-04-25T06:22:50;10.30;99.90
20370;DHT22;10344;47.592;9.600;2023-04-25T06:25:17;10.40;99.90
20370;DHT22;10344;47.592;9.600;2023-04-25T06:27:43;10.40;99.90
20370;DHT22;10344;47.592;9.600;2023-04-25T06:30:09;10.30;99.90
20370;DHT22;10344;47.592;9.600;2023-04-25T06:32:36;10.40;99.90
20370;DHT22;10344;47.592;9.600;2023-04-25T06:35:02;10.40;99.90
20370;DHT22;10344;47.592;9.600;2023-04-25T06:37:29;10.50;99.90
20370;DHT22;10344;47.592;9.600;2023-04-25T06:39:54;10.60;99.90
20370;DHT22;10344;47.592;9.600;2023-04-25T06:42:22;10.80;99.90
20370;DHT22;10344;47.592;9.600;2023-04-25T06:44:52;10.90;99.90
20370;DHT22;10344;47.592;9.600;2023-04-25T06:47:18;11.10;99.90
20370;DHT22;10344;47.592;9.600;2023-04-25T06:49:44;11.30;99.90
20370;DHT22;10344;47.592;9.600;2023-04-25T06:52:09;11.90;99.90
20370;DHT22;10344;47.592;9.600;2023-04-25T06:54:36;12.60;99.90
20370;DHT22;10344;47.592;9.600;2023-04-25T06:57:04;13.20;99.90
20370;DHT22;10344;47.592;9.600;2023-04-25T06:59:32;14.10;99.90
20370;DHT22;10344;47.592;9.600;2023-04-25T07:01:58;14.40;99.90
20370;DHT22;10344;47.592;9.600;2023-04-25T07:04:23;13.80;99.90
20370;DHT22;10344;47.592;9.600;2023-04-25T07:06:49;13.50;99.90
20370;DHT22;10344;47.592;9.600;2023-04-25T07:09:17;13.20;99.90
20370;DHT22;10344;47.592;9.600;2023-04-25T07:11:44;12.90;99.90
20370;DHT22;10344;47.592;9.600;2023-04-25T07:14:12;12.60;99.90
20370;DHT22;10344;47.592;9.600;2023-04-25T07:16:38;12.30;99.90
20370;DHT22;10344;47.592;9.600;2023-04-25T07:19:06;11.90;99.90
20370;DHT22;10344;47.592;9.600;2023-04-25T07:21:32;11.70;99.90
20370;DHT22;10344;47.592;9.600;2023-04-25T07:23:58;11.80;99.90
20370;DHT22;10344;47.592;9.600;2023-04-25T07:26:26;12.20;99.90
20370;DHT22;10344;47.592;9.600;2023-04-25T07:28:52;12.50;99.90
20370;DHT22;10344;47.592;9.600;2023-04-25T07:31:18;12.70;99.90
20370;DHT22;10344;47.592;9.600;2023-04-25T07:33:45;12.70;99.90
20370;DHT22;10344;47.592;9.600;2023-04-25T07:36:12;12.70;99.90
20370;DHT22;10344;47.592;9.600;2023-04-25T07:38:38;12.60;99.90
20370;DHT22;10344;47.592;9.600;2023-04-25T07:41:04;12.40;99.90
20370;DHT22;10344;47.592;9.600;2023-04-25T07:43:32;12.30;99.90
20370;DHT22;10344;47.592;9.600;2023-04-25T07:46:00;12.40;99.90
20370;DHT22;10344;47.592;9.600;2023-04-25T07:48:25;12.50;99.90
20370;DHT22;10344;47.592;9.600;2023-04-25T07:50:53;12.50;99.90
20370;DHT22;10344;47.592;9.600;2023-04-25T07:53:19;12.30;99.90
20370;DHT22;10344;47.592;9.600;2023-04-25T07:55:47;12.20;99.90
20370;DHT22;10344;47.592;9.600;2023-04-25T07:58:15;12.10;99.90
20370;DHT22;10344;47.592;9.600;2023-04-25T08:00:46;11.90;99.90
20370;DHT22;10344;47.592;9.600;2023-04-25T08:03:15;11.60;99.90
20370;DHT22;10344;47.592;9.600;2023-04-25T08:05:45;11.30;99.90
20370;DHT22;10344;47.592;9.600;2023-04-25T08:08:11;11.00;99.90
20370;DHT22;10344;47.592;9.600;2023-04-25T08:10:41;10.90;99.90
20370;DHT22;10344;47.592;9.600;2023-04-25T08:13:09;10.60;99.90
20370;DHT22;10344;47.592;9.600;2023-04-25T08:15:35;10.30;99.90
20370;DHT22;10344;47.592;9.600;2023-04-25T08:18:00;10.10;99.90
20370;DHT22;10344;47.592;9.600;2023-04-25T08:20:26;9.90;99.90
20370;DHT22;10344;47.592;9.600;2023-04-25T08:22:52;9.80;99.90
20370;DHT22;10344;47.592;9.600;2023-04-25T08:25:17;9.70;99.90
20370;DHT22;10344;47.592;9.600;2023-04-25T08:27:43;9.60;99.90
20370;DHT22;10344;47.592;9.600;2023-04-25T08:30:09;9.50;99.90
20370;DHT22;10344;47.592;9.600;2023-04-25T08:32:37;9.40;99.90
20370;DHT22;10344;47.592;9.600;2023-04-25T08:35:08;9.20;99.90
20370;DHT22;10344;47.592;9.600;2023-04-25T08:37:34;9.10;99.90
20370;DHT22;10344;47.592;9.600;2023-04-25T08:40:00;9.10;99.90
20370;DHT22;10344;47.592;9.600;2023-04-25T08:42:27;9.10;99.90
20370;DHT22;10344;47.592;9.600;2023-04-25T08:44:54;9.10;99.90
20370;DHT22;10344;47.592;9.600;2023-04-25T08:47:22;9.10;99.90
20370;DHT22;10344;47.592;9.600;2023-04-25T08:49:53;9.00;99.90
20370;DHT22;10344;47.592;9.600;2023-04-25T08:52:22;9.00;99.90
20370;DHT22;10344;47.592;9.600;2023-04-25T08:54:51;9.10;99.90
20370;DHT22;10344;47.592;9.600;2023-04-25T08:57:18;9.10;99.90
20370;DHT22;10344;47.592;9.600;2023-04-25T08:59:46;9.10;99.90
20370;DHT22;10344;47.592;9.600;2023-04-25T09:02:14;9.10;99.90
20370;DHT22;10344;47.592;9.600;2023-04-25T09:04:43;9.10;99.90
20370;DHT22;10344;47.592;9.600;2023-04-25T09:07:09;9.20;99.90
20370;DHT22;10344;47.592;9.600;2023-04-25T09:09:35;9.30;99.90
20370;DHT22;10344;47.592;9.600;2023-04-25T09:12:02;9.30;99.90
20370;DHT22;10344;47.592;9.600;2023-04-25T09:14:27;9.30;99.90
20370;DHT22;10344;47.592;9.600;2023-04-25T09:19:26;9.30;99.90
20370;DHT22;10344;47.592;9.600;2023-04-25T09:22:00;9.30;99.90
20370;DHT22;10344;47.592;9.600;2023-04-25T09:24:50;9.30;99.90
20370;DHT22;10344;47.592;9.600;2023-04-25T09:27:22;9.40;99.90
20370;DHT22;10344;47.592;9.600;2023-04-25T09:30:03;9.40;99.90
20370;DHT22;10344;47.592;9.600;2023-04-25T09:32:29;9.30;99.90
20370;DHT22;10344;47.592;9.600;2023-04-25T09:34:59;9.30;99.90
20370;DHT22;10344;47.592;9.600;2023-04-25T09:51:20;8.80;99.90
20370;DHT22;10344;47.592;9.600;2023-04-25T09:53:49;8.90;99.90
20370;DHT22;10344;47.592;9.600;2023-04-25T09:56:19;9.00;99.90
20370;DHT22;10344;47.592;9.600;2023-04-25T09:58:47;9.10;99.90
20370;DHT22;10344;47.592;9.600;2023-04-25T10:01:17;9.20;99.90
20370;DHT22;10344;47.592;9.600;2023-04-25T10:03:43;9.20;99.90
20370;DHT22;10344;47.592;9.600;2023-04-25T10:06:19;9.30;99.90
20370;DHT22;10344;47.592;9.600;2023-04-25T10:08:49;9.40;99.90
20370;DHT22;10344;47.592;9.600;2023-04-25T10:11:21;9.60;99.90
20370;DHT22;10344;47.592;9.600;2023-04-25T10:13:50;9.60;99.90
20370;DHT22;10344;47.592;9.600;2023-04-25T10:16:18;9.60;99.90
20370;DHT22;10344;47.592;9.600;2023-04-25T10:18:44;9.60;99.90
20370;DHT22;10344;47.592;9.600;2023-04-25T10:21:10;9.70;99.90
20370;DHT22;10344;47.592;9.600;2023-04-25T10:23:41;9.90;99.90
20370;DHT22;10344;47.592;9.600;2023-04-25T10:26:07;10.10;99.90
20370;DHT22;10344;47.592;9.600;2023-04-25T10:29:03;10.60;99.90
20370;DHT22;10344;47.592;9.600;2023-04-25T10:31:31;11.20;99.90
20370;DHT22;10344;47.592;9.600;2023-04-25T10:34:00;11.80;99.90
20370;DHT22;10344;47.592;9.600;2023-04-25T10:36:31;12.30;99.90
20370;DHT22;10344;47.592;9.600;2023-04-25T10:39:04;12.60;99.90
20370;DHT22;10344;47.592;9.600;2023-04-25T10:41:57;12.50;99.90
20370;DHT22;10344;47.592;9.600;2023-04-25T10:44:27;12.30;99.90
20370;DHT22;10344;47.592;9.600;2023-04-25T10:47:01;12.40;99.90
20370;DHT22;10344;47.592;9.600;2023-04-25T10:49:37;12.60;99.90
20370;DHT22;10344;47.592;9.600;2023-04-25T10:54:56;12.50;99.90
20370;DHT22;10344;47.592;9.600;2023-04-25T10:57:32;12.60;99.90
20370;DHT22;10344;47.592;9.600;2023-04-25T11:02:32;13.00;99.90
20370;DHT22;10344;47.592;9.600;2023-04-25T11:05:02;13.10;99.90
20370;DHT22;10344;47.592;9.600;2023-04-25T11:07:39;13.10;99.90
20370;DHT22;10344;47.592;9.600;2023-04-25T11:10:07;12.90;99.90
20370;DHT22;10344;47.592;9.600;2023-04-25T11:12:33;12.80;99.90
20370;DHT22;10344;47.592;9.600;2023-04-25T11:15:04;12.60;99.90
20370;DHT22;10344;47.592;9.600;2023-04-25T11:17:30;12.60;99.90
20370;DHT22;10344;47.592;9.600;2023-04-25T11:19:56;12.80;99.90
20370;DHT22;10344;47.592;9.600;2023-04-25T11:22:25;13.10;99.90
20370;DHT22;10344;47.592;9.600;2023-04-25T11:24:56;13.90;99.90
20370;DHT22;10344;47.592;9.600;2023-04-25T11:27:22;14.50;99.90
20370;DHT22;10344;47.592;9.600;2023-04-25T11:29:50;15.00;99.90
20370;DHT22;10344;47.592;9.600;2023-04-25T11:32:18;15.60;99.90
20370;DHT22;10344;47.592;9.600;2023-04-25T11:34:46;16.10;99.90
20370;DHT22;10344;47.592;9.600;2023-04-25T11:37:15;16.20;99.90
20370;DHT22;10344;47.592;9.600;2023-04-25T11:39:44;16.00;99.90
20370;DHT22;10344;47.592;9.600;2023-04-25T11:42:13;15.70;99.90
20370;DHT22;10344;47.592;9.600;2023-04-25T11:44:41;15.50;99.90
20370;DHT22;10344;47.592;9.600;2023-04-25T11:47:06;15.20;99.90
20370;DHT22;10344;47.592;9.600;2023-04-25T11:49:35;15.10;99.90
20370;DHT22;10344;47.592;9.600;2023-04-25T11:52:03;14.80;99.90
20370;DHT22;10344;47.592;9.600;2023-04-25T11:54:35;14.30;99.90
20370;DHT22;10344;47.592;9.600;2023-04-25T11:57:01;13.80;99.90
20370;DHT22;10344;47.592;9.600;2023-04-25T11:59:27;13.20;99.90
20370;DHT22;10344;47.592;9.600;2023-04-25T12:01:55;12.70;99.90
20370;DHT22;10344;47.592;9.600;2023-04-25T12:04:24;12.40;99.90
20370;DHT22;10344;47.592;9.600;2023-04-25T12:06:53;12.10;99.90
20370;DHT22;10344;47.592;9.600;2023-04-25T12:09:21;12.10;99.90
20370;DHT22;10344;47.592;9.600;2023-04-25T12:11:54;12.00;99.90
20370;DHT22;10344;47.592;9.600;2023-04-25T12:14:31;11.90;99.90
20370;DHT22;10344;47.592;9.600;2023-04-25T12:17:04;12.10;99.90
20370;DHT22;10344;47.592;9.600;2023-04-25T12:19:36;12.60;99.90
20370;DHT22;10344;47.592;9.600;2023-04-25T12:22:03;13.10;99.90
20370;DHT22;10344;47.592;9.600;2023-04-25T12:24:33;13.30;99.90
20370;DHT22;10344;47.592;9.600;2023-04-25T12:27:03;13.30;99.90
20370;DHT22;10344;47.592;9.600;2023-04-25T12:29:32;13.20;99.90
20370;DHT22;10344;47.592;9.600;2023-04-25T12:31:59;13.10;99.90
20370;DHT22;10344;47.592;9.600;2023-04-25T12:34:27;13.00;99.90
20370;DHT22;10344;47.592;9.600;2023-04-25T12:36:53;12.80;99.90
20370;DHT22;10344;47.592;9.600;2023-04-25T12:39:20;12.50;99.90
20370;DHT22;10344;47.592;9.600;2023-04-25T12:41:48;12.30;99.90
20370;DHT22;10344;47.592;9.600;2023-04-25T12:44:14;12.10;99.90
20370;DHT22;10344;47.592;9.600;2023-04-25T12:46:40;11.80;99.90
20370;DHT22;10344;47.592;9.600;2023-04-25T12:49:09;11.40;99.90
20370;DHT22;10344;47.592;9.600;2023-04-25T12:51:35;11.30;99.90
20370;DHT22;10344;47.592;9.600;2023-04-25T12:54:05;11.20;99.90
20370;DHT22;10344;47.592;9.600;2023-04-25T12:56:32;11.20;99.90
20370;DHT22;10344;47.592;9.600;2023-04-25T12:59:00;11.20;99.90
20370;DHT22;10344;47.592;9.600;2023-04-25T13:01:26;11.20;99.90
20370;DHT22;10344;47.592;9.600;2023-04-25T13:03:54;11.10;99.90
20370;DHT22;10344;47.592;9.600;2023-04-25T13:06:21;11.00;99.90
20370;DHT22;10344;47.592;9.600;2023-04-25T13:08:54;10.90;99.90
20370;DHT22;10344;47.592;9.600;2023-04-25T13:11:20;10.80;99.90
20370;DHT22;10344;47.592;9.600;2023-04-25T13:13:46;10.70;99.90
20370;DHT22;10344;47.592;9.600;2023-04-25T13:16:11;10.50;99.90
20370;DHT22;10344;47.592;9.600;2023-04-25T13:18:39;10.40;99.90
20370;DHT22;10344;47.592;9.600;2023-04-25T13:21:09;10.40;99.90
20370;DHT22;10344;47.592;9.600;2023-04-25T13:23:36;10.40;99.90
20370;DHT22;10344;47.592;9.600;2023-04-25T13:26:01;10.60;99.90
20370;DHT22;10344;47.592;9.600;2023-04-25T13:28:29;11.00;99.90
20370;DHT22;10344;47.592;9.600;2023-04-25T13:30:57;11.80;99.90
20370;DHT22;10344;47.592;9.600;2023-04-25T13:33:23;12.70;99.90
20370;DHT22;10344;47.592;9.600;2023-04-25T13:35:51;13.30;99.90
20370;DHT22;10344;47.592;9.600;2023-04-25T13:38:22;13.60;99.90
20370;DHT22;10344;47.592;9.600;2023-04-25T13:40:50;13.70;99.90
20370;DHT22;10344;47.592;9.600;2023-04-25T13:43:22;13.70;99.90
20370;DHT22;10344;47.592;9.600;2023-04-25T13:45:49;14.10;99.90
20370;DHT22;10344;47.592;9.600;2023-04-25T13:48:18;14.40;99.90
20370;DHT22;10344;47.592;9.600;2023-04-25T13:50:49;14.70;99.90
20370;DHT22;10344;47.592;9.600;2023-04-25T13:53:15;14.90;99.90
20370;DHT22;10344;47.592;9.600;2023-04-25T13:55:41;14.80;99.90
20370;DHT22;10344;47.592;9.600;2023-04-25T13:58:06;14.60;99.90
20370;DHT22;10344;47.592;9.600;2023-04-25T14:00:38;14.60;99.90
20370;DHT22;10344;47.592;9.600;2023-04-25T14:03:04;14.30;99.90
20370;DHT22;10344;47.592;9.600;2023-04-25T14:05:33;14.10;99.90
20370;DHT22;10344;47.592;9.600;2023-04-25T14:08:04;13.60;99.90
20370;DHT22;10344;47.592;9.600;2023-04-25T14:10:30;12.90;99.90
20370;DHT22;10344;47.592;9.600;2023-04-25T14:12:57;12.30;99.90
20370;DHT22;10344;47.592;9.600;2023-04-25T14:15:24;11.90;99.90
20370;DHT22;10344;47.592;9.600;2023-04-25T14:17:56;11.40;99.90
20370;DHT22;10344;47.592;9.600;2023-04-25T14:20:24;11.30;99.90
20370;DHT22;10344;47.592;9.600;2023-04-25T14:22:49;11.50;99.90
20370;DHT22;10344;47.592;9.600;2023-04-25T14:25:15;11.90;99.90
20370;DHT22;10344;47.592;9.600;2023-04-25T14:27:41;12.50;99.90
20370;DHT22;10344;47.592;9.600;2023-04-25T14:30:12;13.30;99.90
20370;DHT22;10344;47.592;9.600;2023-04-25T14:32:40;13.80;99.90
20370;DHT22;10344;47.592;9.600;2023-04-25T14:35:08;13.90;99.90
20370;DHT22;10344;47.592;9.600;2023-04-25T14:37:34;13.80;99.90
20370;DHT22;10344;47.592;9.600;2023-04-25T14:40:04;13.50;99.90
20370;DHT22;10344;47.592;9.600;2023-04-25T14:42:30;13.20;99.90
20370;DHT22;10344;47.592;9.600;2023-04-25T14:45:01;12.90;99.90
20370;DHT22;10344;47.592;9.600;2023-04-25T14:47:27;12.70;99.90
20370;DHT22;10344;47.592;9.600;2023-04-25T14:49:54;12.20;99.90
20370;DHT22;10344;47.592;9.600;2023-04-25T14:55:28;10.80;99.90
20370;DHT22;10344;47.592;9.600;2023-04-25T14:57:55;10.30;99.90
20370;DHT22;10344;47.592;9.600;2023-04-25T15:00:22;10.10;99.90
20370;DHT22;10344;47.592;9.600;2023-04-25T15:02:50;9.80;99.90
20370;DHT22;10344;47.592;9.600;2023-04-25T15:05:18;9.70;99.90
20370;DHT22;10344;47.592;9.600;2023-04-25T15:07:44;9.60;99.90
20370;DHT22;10344;47.592;9.600;2023-04-25T15:10:10;9.70;99.90
20370;DHT22;10344;47.592;9.600;2023-04-25T15:12:42;9.60;99.90
20370;DHT22;10344;47.592;9.600;2023-04-25T15:15:08;9.40;99.90
20370;DHT22;10344;47.592;9.600;2023-04-25T15:17:43;9.30;99.90
20370;DHT22;10344;47.592;9.600;2023-04-25T15:20:13;9.20;99.90
20370;DHT22;10344;47.592;9.600;2023-04-25T15:22:40;9.10;99.90
20370;DHT22;10344;47.592;9.600;2023-04-25T15:25:07;9.30;99.90
20370;DHT22;10344;47.592;9.600;2023-04-25T15:27:34;9.30;99.90
20370;DHT22;10344;47.592;9.600;2023-04-25T15:30:06;9.40;99.90
20370;DHT22;10344;47.592;9.600;2023-04-25T15:32:32;9.30;99.90
20370;DHT22;10344;47.592;9.600;2023-04-25T15:34:58;9.30;99.90
20370;DHT22;10344;47.592;9.600;2023-04-25T15:37:23;9.30;99.90
20370;DHT22;10344;47.592;9.600;2023-04-25T15:40:04;9.30;99.90
20370;DHT22;10344;47.592;9.600;2023-04-25T15:42:36;9.40;99.90
20370;DHT22;10344;47.592;9.600;2023-04-25T15:45:08;9.40;99.90
20370;DHT22;10344;47.592;9.600;2023-04-25T15:47:37;9.30;99.90
20370;DHT22;10344;47.592;9.600;2023-04-25T15:50:09;9.20;99.90
20370;DHT22;10344;47.592;9.600;2023-04-25T15:52:38;9.20;99.90
20370;DHT22;10344;47.592;9.600;2023-04-25T15:55:07;9.20;99.90
20370;DHT22;10344;47.592;9.600;2023-04-25T15:57:34;9.20;99.90
20370;DHT22;10344;47.592;9.600;2023-04-25T16:00:04;9.30;99.90
20370;DHT22;10344;47.592;9.600;2023-04-25T16:02:40;9.20;99.90
20370;DHT22;10344;47.592;9.600;2023-04-25T16:05:07;9.20;99.90
20370;DHT22;10344;47.592;9.600;2023-04-25T16:07:36;9.30;99.90